createdAt,value
2023-01-29T00:03:17.363Z,57.69
2023-01-29T00:08:19.473Z,57.83
2023-01-29T00:13:22.378Z,57.94
2023-01-29T00:18:25.827Z,57.85
2023-01-29T00:23:28.110Z,57.88
2023-01-29T00:28:30.348Z,57.93
2023-01-29T00:33:32.482Z,58.13
2023-01-29T00:38:35.269Z,58.25
2023-01-29T00:43:56.093Z,58.01
2023-01-29T00:49:00.129Z,58.13
2023-01-29T00:54:06.873Z,57.79
2023-01-29T00:59:08.916Z,56.99
2023-01-29T01:04:12.279Z,56.98
2023-01-29T01:09:32.728Z,56.17
2023-01-29T01:14:36.628Z,56.07
2023-01-29T01:19:38.947Z,56.27
2023-01-29T01:24:41.179Z,56.43
2023-01-29T01:29:43.315Z,56.17
2023-01-29T01:34:45.482Z,56.53
2023-01-29T01:39:49.171Z,56.34
2023-01-29T01:44:51.528Z,56.00
2023-01-29T01:49:55.816Z,56.13
2023-01-29T01:54:59.886Z,55.94
2023-01-29T02:00:10.199Z,55.54
2023-01-29T02:05:39.680Z,55.58
2023-01-29T02:10:45.563Z,55.76
2023-01-29T02:15:48.918Z,55.69
2023-01-29T02:21:25.348Z,55.40
2023-01-29T02:26:32.375Z,55.50
2023-01-29T02:31:48.380Z,55.88
2023-01-29T02:36:58.637Z,55.03
2023-01-29T02:42:24.706Z,55.49
2023-01-29T02:47:32.971Z,55.95
2023-01-29T02:52:54.315Z,55.99
2023-01-29T02:58:04.104Z,55.15
2023-01-29T03:03:16.551Z,56.00
2023-01-29T03:08:37.388Z,55.58
2023-01-29T03:13:57.789Z,55.42
2023-01-29T03:19:16.409Z,56.02
2023-01-29T03:24:43.467Z,55.50
2023-01-29T03:30:07.111Z,55.46
2023-01-29T03:35:35.521Z,55.79
2023-01-29T03:40:50.571Z,55.99
2023-01-29T03:46:36.694Z,55.85
2023-01-29T03:51:50.896Z,56.02
2023-01-29T03:57:15.591Z,56.04
2023-01-29T04:02:30.699Z,55.76
2023-01-29T04:07:36.927Z,55.52
2023-01-29T04:12:56.823Z,55.23
2023-01-29T04:17:59.646Z,55.31
2023-01-29T04:23:27.591Z,55.64
2023-01-29T04:28:46.152Z,55.63
2023-01-29T04:33:48.360Z,55.62
2023-01-29T04:39:17.548Z,55.74
2023-01-29T04:44:28.853Z,55.28
2023-01-29T04:49:49.376Z,55.51
2023-01-29T04:55:06.327Z,55.56
2023-01-29T05:00:34.707Z,55.49
2023-01-29T05:05:37.047Z,55.23
2023-01-29T05:10:39.989Z,55.54
2023-01-29T05:15:50.781Z,55.41
2023-01-29T05:20:56.839Z,55.50
2023-01-29T05:25:59.122Z,55.63
2023-01-29T05:31:01.333Z,55.56
2023-01-29T05:36:04.131Z,55.67
2023-01-29T05:41:06.268Z,55.52
2023-01-29T05:46:08.394Z,55.38
2023-01-29T05:51:10.494Z,55.66
2023-01-29T05:56:12.621Z,55.69
2023-01-29T06:01:23.167Z,56.14
2023-01-29T06:06:25.269Z,56.15
2023-01-29T06:11:27.352Z,56.27
2023-01-29T06:16:30.137Z,56.39
2023-01-29T06:21:32.361Z,56.12
2023-01-29T06:26:34.442Z,55.88
2023-01-29T06:31:39.229Z,55.79
2023-01-29T06:36:42.977Z,55.92
2023-01-29T06:41:46.421Z,56.25
2023-01-29T06:46:48.479Z,55.52
2023-01-29T06:51:50.553Z,55.78
2023-01-29T06:56:52.838Z,54.74
2023-01-29T07:01:54.978Z,54.64
2023-01-29T07:06:57.148Z,53.33
2023-01-29T07:11:59.295Z,53.48
2023-01-29T07:17:01.652Z,53.62
2023-01-29T07:22:04.077Z,53.89
2023-01-29T07:27:06.407Z,53.91
2023-01-29T07:32:08.712Z,52.82
2023-01-29T07:37:11.583Z,52.53
2023-01-29T07:42:13.756Z,52.48
2023-01-29T07:47:17.237Z,52.40
2023-01-29T07:52:21.943Z,51.49
2023-01-29T07:57:24.697Z,50.39
2023-01-29T08:02:26.864Z,51.37
2023-01-29T08:07:29.085Z,50.54
2023-01-29T08:12:31.260Z,50.19
2023-01-29T08:17:33.442Z,50.43
2023-01-29T08:22:35.598Z,50.16
2023-01-29T08:27:37.836Z,50.16
2023-01-29T08:32:39.877Z,50.02
2023-01-29T08:37:42.046Z,49.83
2023-01-29T08:42:44.214Z,49.83
2023-01-29T08:47:47.695Z,49.69
2023-01-29T08:52:49.998Z,50.22
2023-01-29T08:57:52.096Z,49.72
2023-01-29T09:02:54.178Z,49.67
2023-01-29T09:07:59.875Z,50.03
2023-01-29T09:13:02.313Z,49.61
2023-01-29T09:18:05.580Z,49.79
2023-01-29T09:23:09.601Z,49.64
2023-01-29T09:28:11.781Z,50.05
2023-01-29T09:33:14.074Z,50.11
2023-01-29T09:38:16.236Z,50.10
2023-01-29T09:43:24.448Z,50.03
2023-01-29T09:48:31.407Z,50.21
2023-01-29T09:53:54.955Z,50.43
2023-01-29T09:59:01.391Z,50.00
2023-01-29T10:04:45.789Z,50.23
2023-01-29T10:10:22.850Z,50.92
2023-01-29T10:15:43.673Z,51.07
2023-01-29T10:21:13.044Z,50.46
2023-01-29T10:26:15.238Z,50.28
2023-01-29T10:31:38.762Z,51.03
2023-01-29T10:36:43.324Z,50.08
2023-01-29T10:42:05.732Z,49.91
2023-01-29T10:47:46.461Z,50.38
2023-01-29T10:53:18.477Z,48.82
2023-01-29T10:58:41.962Z,49.95
2023-01-29T11:03:44.200Z,48.64
2023-01-29T11:09:11.124Z,48.61
2023-01-29T11:14:27.147Z,48.90
2023-01-29T11:19:41.490Z,48.99
2023-01-29T11:24:44.374Z,48.47
2023-01-29T11:29:48.359Z,48.87
2023-01-29T11:35:22.092Z,48.83
2023-01-29T11:40:24.123Z,48.31
2023-01-29T11:45:32.413Z,48.83
2023-01-29T11:50:34.697Z,48.33
2023-01-29T11:55:49.784Z,49.22
2023-01-29T12:00:55.439Z,49.28
2023-01-29T12:06:06.020Z,49.63
2023-01-29T12:11:23.913Z,49.17
2023-01-29T12:16:41.100Z,49.71
2023-01-29T12:21:52.782Z,49.99
2023-01-29T12:27:14.915Z,50.03
2023-01-29T12:32:22.510Z,50.52
2023-01-29T12:37:36.176Z,51.50
2023-01-29T12:42:42.059Z,51.53
2023-01-29T12:47:49.294Z,51.36
2023-01-29T12:52:58.550Z,52.09
2023-01-29T12:58:04.283Z,52.02
2023-01-29T13:03:21.394Z,51.94
2023-01-29T13:08:31.139Z,52.33
2023-01-29T13:13:37.014Z,52.68
2023-01-29T13:18:47.963Z,52.74
2023-01-29T13:23:56.935Z,52.52
2023-01-29T13:28:59.155Z,53.08
2023-01-29T13:34:10.174Z,53.43
2023-01-29T13:39:25.130Z,52.96
2023-01-29T13:44:37.521Z,53.83
2023-01-29T13:50:02.773Z,53.66
2023-01-29T13:55:09.568Z,53.98
2023-01-29T14:00:43.658Z,53.53
2023-01-29T14:05:54.755Z,53.95
2023-01-29T14:11:35.929Z,54.10
2023-01-29T14:16:38.237Z,54.12
2023-01-29T14:21:40.792Z,54.23
2023-01-29T14:26:48.631Z,54.37
2023-01-29T14:32:00.744Z,54.48
2023-01-29T14:37:19.482Z,54.68
2023-01-29T14:42:26.024Z,54.84
2023-01-29T14:47:28.026Z,54.99
2023-01-29T14:52:35.901Z,54.71
2023-01-29T14:57:38.988Z,54.64
2023-01-29T15:02:44.723Z,55.05
2023-01-29T15:07:57.093Z,55.26
2023-01-29T15:13:30.537Z,56.51
2023-01-29T15:18:42.418Z,57.08
2023-01-29T15:23:45.598Z,57.78
2023-01-29T15:29:03.639Z,58.74
2023-01-29T15:34:07.848Z,59.39
2023-01-29T15:39:09.863Z,59.32
2023-01-29T15:44:21.164Z,60.19
2023-01-29T15:49:32.114Z,60.38
2023-01-29T15:54:35.699Z,60.74
2023-01-29T15:59:42.702Z,60.82
2023-01-29T16:04:46.063Z,61.25
2023-01-29T16:09:49.304Z,61.39
2023-01-29T16:14:52.072Z,61.40
2023-01-29T16:20:02.048Z,62.10
2023-01-29T16:25:13.456Z,61.52
2023-01-29T16:30:17.605Z,61.54
2023-01-29T16:35:20.005Z,60.97
2023-01-29T16:40:33.922Z,60.69
2023-01-29T16:45:36.011Z,60.45
2023-01-29T16:50:53.861Z,60.06
2023-01-29T16:56:03.921Z,60.33
2023-01-29T17:01:10.845Z,59.93
2023-01-29T17:06:23.235Z,59.54
2023-01-29T17:11:36.812Z,59.22
2023-01-29T17:17:03.939Z,59.03
2023-01-29T17:22:08.589Z,58.75
2023-01-29T17:27:22.740Z,58.46
2023-01-29T17:32:44.071Z,58.94
2023-01-29T17:37:49.502Z,58.67
2023-01-29T17:42:51.564Z,58.24
2023-01-29T17:47:53.605Z,58.05
2023-01-29T17:52:55.771Z,57.69
2023-01-29T17:57:57.859Z,57.76
2023-01-29T18:03:02.504Z,57.94
2023-01-29T18:08:04.905Z,58.08
2023-01-29T18:13:06.940Z,57.60
2023-01-29T18:18:15.951Z,57.68
2023-01-29T18:23:18.037Z,57.67
2023-01-29T18:28:20.186Z,57.72
2023-01-29T18:33:24.246Z,58.13
2023-01-29T18:38:26.537Z,57.72
2023-01-29T18:43:28.713Z,58.37
2023-01-29T18:48:31.195Z,57.87
2023-01-29T18:53:33.543Z,57.97
2023-01-29T18:58:36.923Z,58.07
2023-01-29T19:03:40.736Z,58.03
2023-01-29T19:08:44.085Z,58.14
2023-01-29T19:13:48.031Z,57.57
2023-01-29T19:18:50.095Z,57.97
2023-01-29T19:23:52.150Z,58.12
2023-01-29T19:28:54.411Z,58.17
2023-01-29T19:33:56.489Z,58.18
2023-01-29T19:38:58.638Z,58.38
2023-01-29T19:44:00.746Z,58.57
2023-01-29T19:49:03.635Z,58.25
2023-01-29T19:54:05.728Z,58.89
2023-01-29T19:59:07.803Z,58.58
2023-01-29T20:04:09.824Z,58.21
2023-01-29T20:09:12.061Z,58.54
2023-01-29T20:14:14.150Z,58.63
2023-01-29T20:19:16.330Z,58.84
2023-01-29T20:24:18.358Z,58.78
2023-01-29T20:29:20.389Z,58.49
2023-01-29T20:34:22.571Z,58.43
2023-01-29T20:39:24.863Z,58.75
2023-01-29T20:44:26.996Z,59.19
2023-01-29T20:49:29.213Z,59.02
2023-01-29T20:54:33.344Z,59.35
2023-01-29T20:59:35.658Z,59.74
2023-01-29T21:04:37.774Z,59.93
2023-01-29T21:09:39.928Z,59.94
2023-01-29T21:14:42.093Z,60.03
2023-01-29T21:19:44.157Z,60.52
2023-01-29T21:24:46.358Z,60.10
2023-01-29T21:29:48.698Z,59.96
2023-01-29T21:34:52.606Z,59.76
2023-01-29T21:39:54.844Z,59.75
2023-01-29T21:44:57.023Z,59.54
2023-01-29T21:49:59.064Z,59.59
2023-01-29T21:55:01.179Z,59.76
2023-01-29T22:00:04.301Z,59.16
2023-01-29T22:05:18.877Z,59.24
2023-01-29T22:10:22.538Z,59.93
2023-01-29T22:15:24.717Z,59.78
2023-01-29T22:20:30.764Z,60.26
2023-01-29T22:25:33.511Z,60.63
2023-01-29T22:30:35.669Z,61.10
2023-01-29T22:35:38.373Z,60.18
2023-01-29T22:40:40.408Z,61.40
2023-01-29T22:45:42.533Z,61.70
2023-01-29T22:50:53.825Z,61.29
2023-01-29T22:55:56.048Z,61.10
2023-01-29T23:00:58.207Z,61.23
2023-01-29T23:06:00.345Z,60.88
2023-01-29T23:11:14.667Z,61.05
2023-01-29T23:16:20.153Z,61.20
2023-01-29T23:21:25.219Z,61.02
2023-01-29T23:26:47.563Z,60.90
2023-01-29T23:31:49.830Z,60.68
2023-01-29T23:36:52.052Z,60.59
2023-01-29T23:41:55.209Z,60.33
2023-01-29T23:46:58.386Z,60.73
2023-01-29T23:52:00.470Z,60.75
2023-01-29T23:57:02.487Z,60.49
